Aviation Digital Data Service (ADDS)

Output produced by METARs form (1040 UTC 19 January 2019)
found at http://www.aviationweather.gov/metar/data/
 
PHTO 190953Z AUTO 22004KT 10SM SCT021 BKN032 OVC055 20/18 A3012 RMK AO2 SLP197 T02000178 402720178 TSNO
PHTO 191003Z 1910/2006 23004KT P6SM VCSH SCT020 BKN040 
     FM192100 08009KT P6SM FEW025 BKN050 
     FM200400 VRB05KT P6SM FEW025 BKN050
       
PHNL 190953Z 05009KT 10SM FEW024 23/17 A3011 RMK AO2 SLP196 T02330167 402720206 $
PHNL 190921Z 1909/2012 05007KT P6SM FEW025 SCT045 
     FM192000 08014G22KT P6SM FEW025 SCT045 
     FM200500 06008KT P6SM FEW025 SCT050
       
PHOG 191021Z AUTO 04011KT 6SM -RA BR FEW022 BKN031 OVC041 22/21 A3012 RMK AO2 P0002 T02170206 TSNO
PHOG 191004Z 1910/2006 04012KT P6SM VCSH FEW022 BKN035 
     TEMPO 1910/1911 -SHRA FEW018 SCT025 BKN035 
     FM192100 05016G22KT P6SM FEW025 SCT045 
     FM200400 07012KT P6SM FEW030 SCT050 AMD LTD TO VIS AND WIND TIL 191600
       
PHKO 190953Z AUTO 36004KT 10SM FEW045 22/16 A3006 RMK AO2 SLP181 T02170156 402720200 TSNO
PHKO 190520Z 1906/2006 06006KT P6SM FEW030 SCT060 
     FM190900 12005KT P6SM SCT060 
     FM192100 23009KT P6SM SCT060 
     FM200100 22008KT P6SM BKN060
       
PHJR 190953Z AUTO 05004KT 10SM CLR 21/17 A3012 RMK AO2 SLP206 T02110167 402780194 TSNO
PHJR 190520Z 1906/2006 05005KT P6SM FEW040 
     FM192000 11008G13KT P6SM FEW030 SCT045 
     FM200400 07005KT P6SM FEW030 SCT045
       
PHMK 190954Z AUTO 03009G17KT 10SM FEW013 FEW022 21/18 A3012 RMK AO2 RAB08E42 SLP203 P0000 T02060183 402390167 TSNO
PHMK 190813Z 1908/2006 03007G12KT P6SM VCSH FEW020 BKN035 
     TEMPO 1908/1910 -SHRA BKN020 BKN035 
     FM192000 05014G22KT P6SM FEW020 SCT045 
     FM200500 05008G14KT P6SM FEW020 SCT045
       
PHNY 190956Z AUTO 05018G23KT 10SM SCT055 19/17 A3014 RMK AO2 PK WND 03028/0908 SLP188 T01890172 402330156
PHNY 190743Z 1908/2006 04015KT P6SM FEW020 BKN035 
     FM192000 04012KT P6SM FEW020 SCT035
       
PHLI 191005Z AUTO 06011KT 10SM FEW025 BKN031 22/17 A3014 RMK AO2 T02220167 TSNO
PHLI 190654Z 1907/2006 05007KT P6SM FEW022 BKN035 
     TEMPO 1907/1910 BKN027 OVC050 
     FM192000 08010KT P6SM FEW022 BKN040 
     FM200400 10008KT P6SM FEW022 BKN045